Time;durP1;ratioP1;P1;durP2;ratioP2;P2;SDS_P1;SDS_P2;PMS_P1;PMS_P2;Temp;Humidity;BMP_temperature;BMP_pressure;BME280_temperature;BME280_humidity;BME280_pressure;Samples;Min_cycle;Max_cycle;Signal;HPM_P1;HPM_P2
2023/06/24 00:02:15;;;;;;;6.70;5.30;;;;;13.30;95030.00;;;;7400887;19;20612;-88
2023/06/24 00:05:00;;;;;;;6.63;5.32;;;;;13.30;95036.00;;;;7399619;19;20173;-87
2023/06/24 00:07:27;;;;;;;6.20;5.18;;;;;13.30;95022.00;;;;7403912;19;20455;-88
2023/06/24 00:10:03;;;;;;;5.75;4.55;;;;;13.10;95032.00;;;;7401008;19;20145;-88
2023/06/24 00:12:32;;;;;;;7.38;5.30;;;;;13.10;95023.00;;;;7399801;19;20194;-87
2023/06/24 00:15:09;;;;;;;9.13;5.15;;;;;13.10;95030.00;;;;7400121;19;20390;-86
2023/06/24 00:17:38;;;;;;;6.93;5.70;;;;;13.10;95029.00;;;;7399442;19;20133;-88
2023/06/24 00:20:14;;;;;;;5.78;5.20;;;;;13.10;95035.00;;;;7399672;19;20611;-87
2023/06/24 00:22:43;;;;;;;7.05;5.25;;;;;13.00;95026.00;;;;7398737;19;20180;-87
2023/06/24 00:25:18;;;;;;;5.93;5.30;;;;;13.10;95023.00;;;;7398405;19;20217;-87
2023/06/24 00:27:52;;;;;;;7.35;5.68;;;;;13.00;95030.00;;;;7400706;19;20136;-87
2023/06/24 00:30:20;;;;;;;6.63;5.63;;;;;13.10;95018.00;;;;7399889;19;20141;-78
2023/06/24 00:32:54;;;;;;;7.13;5.53;;;;;13.10;95021.00;;;;7400230;19;20188;-78
2023/06/24 00:35:22;;;;;;;7.38;5.60;;;;;13.10;95011.00;;;;7400442;19;20192;-77
2023/06/24 00:37:58;;;;;;;5.72;5.00;;;;;13.10;95016.00;;;;7399407;19;20280;-77
2023/06/24 00:40:26;;;;;;;5.97;5.38;;;;;13.10;95022.00;;;;7393024;19;20505;-78
2023/06/24 00:43:05;;;;;;;6.53;5.13;;;;;13.10;95015.00;;;;7397884;19;20257;-78
2023/06/24 00:45:33;;;;;;;6.90;5.60;;;;;13.10;95021.00;;;;7397462;19;20221;-77
2023/06/24 00:48:08;;;;;;;5.53;5.03;;;;;13.10;95014.00;;;;7400054;19;20136;-78
2023/06/24 00:50:37;;;;;;;5.40;4.90;;;;;13.10;95014.00;;;;7397521;19;20672;-78
2023/06/24 00:53:11;;;;;;;6.57;5.45;;;;;13.10;95016.00;;;;7398274;19;20153;-77
2023/06/24 00:55:46;;;;;;;12.13;5.38;;;;;13.20;95017.00;;;;7397202;19;20133;-78
2023/06/24 00:58:16;;;;;;;6.47;5.28;;;;;13.10;95017.00;;;;7400438;19;20211;-77
2023/06/24 01:01:05;;;;;;;6.70;5.20;;;;;13.20;95019.00;;;;7392438;19;20205;-91
2023/06/24 01:03:41;;;;;;;6.88;5.65;;;;;13.30;95018.00;;;;7400487;19;20152;-91
2023/06/24 01:06:17;;;;;;;6.18;5.57;;;;;13.20;95017.00;;;;7403398;19;20128;-91
2023/06/24 01:08:50;;;;;;;6.75;5.07;;;;;13.10;95030.00;;;;7403566;19;20566;-92
2023/06/24 01:11:25;;;;;;;5.60;4.95;;;;;13.00;95019.00;;;;7402582;19;20148;-91
2023/06/24 01:13:53;;;;;;;6.13;5.53;;;;;12.90;95020.00;;;;7401759;19;20160;-91
2023/06/24 01:16:48;;;;;;;6.43;5.25;;;;;13.00;95020.00;;;;7401144;19;20557;-92
2023/06/24 01:19:50;;;;;;;6.75;5.65;;;;;12.90;95017.00;;;;7403066;19;20166;-91
2023/06/24 01:22:40;;;;;;;7.82;5.65;;;;;12.90;95016.00;;;;7401777;19;20149;-91
2023/06/24 01:25:38;;;;;;;6.25;5.18;;;;;12.90;95018.00;;;;7403265;19;20508;-91
2023/06/24 01:28:45;;;;;;;10.65;5.60;;;;;13.00;95008.00;;;;7403160;19;20174;-91
2023/06/24 01:31:50;;;;;;;7.55;5.45;;;;;12.90;95003.00;;;;7399449;19;20160;-90
2023/06/24 01:34:26;;;;;;;6.68;5.70;;;;;13.00;95006.00;;;;7402625;19;20133;-91
2023/06/24 01:36:58;;;;;;;9.90;6.03;;;;;12.90;95003.00;;;;7400888;19;20145;-92
2023/06/24 01:39:38;;;;;;;6.93;5.43;;;;;12.90;95004.00;;;;7400232;19;20117;-91
2023/06/24 01:42:11;;;;;;;7.60;5.35;;;;;12.90;94998.00;;;;7398166;19;20174;-91
2023/06/24 01:44:47;;;;;;;7.60;5.38;;;;;12.80;94997.00;;;;7401885;19;20133;-92
2023/06/24 01:47:26;;;;;;;7.70;5.63;;;;;12.80;95006.00;;;;7402763;19;20498;-91
2023/06/24 01:49:57;;;;;;;6.47;5.82;;;;;12.80;94997.00;;;;7401167;19;20650;-91
2023/06/24 01:52:33;;;;;;;7.53;5.57;;;;;12.80;95000.00;;;;7400096;19;20718;-91
2023/06/24 01:55:04;;;;;;;5.68;5.13;;;;;12.70;94998.00;;;;7401985;19;20267;-91
2023/06/24 01:57:40;;;;;;;6.80;5.53;;;;;12.70;95001.00;;;;7401583;19;20482;-91
2023/06/24 02:00:10;;;;;;;6.13;5.53;;;;;12.60;95008.00;;;;7402207;19;20608;-91
2023/06/24 02:02:53;;;;;;;6.82;4.95;;;;;12.50;95002.00;;;;7400214;19;20190;-91
2023/06/24 02:05:32;;;;;;;8.32;6.72;;;;;12.50;94998.00;;;;7401480;19;20204;-91
2023/06/24 02:08:02;;;;;;;7.20;5.45;;;;;12.60;95016.00;;;;7401342;19;20137;-91
2023/06/24 02:10:41;;;;;;;8.50;5.18;;;;;12.60;95011.00;;;;7399709;19;20152;-91
2023/06/24 02:13:11;;;;;;;7.63;5.63;;;;;12.50;94995.00;;;;7402545;19;20149;-91
2023/06/24 02:15:47;;;;;;;7.80;5.45;;;;;12.60;94996.00;;;;7400374;19;20164;-90
2023/06/24 02:18:17;;;;;;;6.85;5.32;;;;;12.60;94997.00;;;;7398576;19;20487;-90
2023/06/24 02:20:53;;;;;;;6.75;5.50;;;;;12.60;94991.00;;;;7401141;19;20125;-91
2023/06/24 02:23:23;;;;;;;5.55;4.88;;;;;12.70;94991.00;;;;7400390;19;20152;-91
2023/06/24 02:25:59;;;;;;;5.68;4.60;;;;;12.70;94990.00;;;;7397514;19;20173;-90
2023/06/24 02:28:29;;;;;;;6.97;4.80;;;;;12.70;94990.00;;;;7400527;19;20165;-91
2023/06/24 02:31:04;;;;;;;5.82;5.22;;;;;12.70;94984.00;;;;7399321;19;20672;-91
2023/06/24 02:33:38;;;;;;;6.10;5.50;;;;;12.70;94993.00;;;;7400289;19;20158;-91
2023/06/24 02:36:13;;;;;;;6.40;5.15;;;;;12.70;94985.00;;;;7399191;19;20159;-90
2023/06/24 02:38:47;;;;;;;5.53;5.03;;;;;12.80;94989.00;;;;7399455;19;20148;-91
2023/06/24 02:41:14;;;;;;;9.18;6.00;;;;;12.90;94987.00;;;;7397180;19;20647;-91
2023/06/24 02:43:42;;;;;;;5.35;4.68;;;;;12.90;94984.00;;;;7400508;19;20149;-91
2023/06/24 02:46:17;;;;;;;6.25;4.85;;;;;12.80;94990.00;;;;7398674;19;20144;-91
2023/06/24 02:48:46;;;;;;;6.90;4.85;;;;;12.80;94991.00;;;;7398848;19;20155;-91
2023/06/24 02:51:21;;;;;;;7.22;5.03;;;;;12.90;94990.00;;;;7399621;19;20133;-91
2023/06/24 02:53:58;;;;;;;4.95;4.43;;;;;12.90;94981.00;;;;7400936;19;20140;-91
2023/06/24 02:56:32;;;;;;;6.03;4.70;;;;;12.80;94980.00;;;;7398602;19;20127;-90
2023/06/24 02:59:03;;;;;;;6.40;4.78;;;;;12.80;94978.00;;;;7398674;19;20208;-90
2023/06/24 03:01:45;;;;;;;5.90;4.47;;;;;12.90;94976.00;;;;7399327;19;20180;-91
2023/06/24 03:04:21;;;;;;;5.82;4.68;;;;;12.90;94980.00;;;;7400391;19;20156;-91
2023/06/24 03:06:56;;;;;;;9.05;5.28;;;;;12.90;94983.00;;;;7397882;19;20194;-91
2023/06/24 03:09:26;;;;;;;5.53;4.85;;;;;12.90;94977.00;;;;7399100;19;20157;-91
2023/06/24 03:12:00;;;;;;;5.63;4.70;;;;;12.90;94982.00;;;;7400535;19;20148;-91
2023/06/24 03:14:28;;;;;;;6.93;5.00;;;;;13.00;94984.00;;;;7397339;19;20213;-88
2023/06/24 03:17:03;;;;;;;4.97;4.47;;;;;13.00;94993.00;;;;7394470;19;20148;-87
2023/06/24 03:19:37;;;;;;;6.10;5.13;;;;;12.90;94979.00;;;;7395901;19;20500;-88
2023/06/24 03:22:12;;;;;;;5.30;4.65;;;;;13.00;94990.00;;;;7394116;19;20608;-88
2023/06/24 03:24:39;;;;;;;6.63;4.47;;;;;13.00;94990.00;;;;7394218;19;20159;-87
2023/06/24 03:27:16;;;;;;;6.20;4.40;;;;;13.00;94990.00;;;;7394358;19;20153;-88
2023/06/24 03:29:44;;;;;;;6.35;4.60;;;;;13.00;94988.00;;;;7396474;19;20137;-87
2023/06/24 03:32:18;;;;;;;5.50;4.75;;;;;13.00;94998.00;;;;7396134;19;20156;-87
2023/06/24 03:34:52;;;;;;;4.97;4.30;;;;;13.00;94988.00;;;;7394783;19;20583;-88
2023/06/24 03:37:19;;;;;;;9.43;4.32;;;;;13.00;94989.00;;;;7395920;19;20216;-87
2023/06/24 03:39:55;;;;;;;7.47;4.93;;;;;13.10;94990.00;;;;7396104;19;20144;-88
2023/06/24 03:42:29;;;;;;;4.85;4.45;;;;;13.20;95000.00;;;;7395802;19;20133;-87
2023/06/24 03:45:04;;;;;;;6.82;4.90;;;;;13.30;95004.00;;;;7394289;19;20147;-89
2023/06/24 03:47:32;;;;;;;5.88;4.88;;;;;13.40;95001.00;;;;7395720;19;20125;-88
2023/06/24 03:50:07;;;;;;;6.60;4.40;;;;;13.50;95005.00;;;;7394915;19;20144;-87
2023/06/24 03:52:44;;;;;;;5.05;4.35;;;;;13.60;95000.00;;;;7397516;19;20141;-88
2023/06/24 03:55:17;;;;;;;5.55;4.95;;;;;13.60;94998.00;;;;7401432;19;20584;-87
2023/06/24 03:57:51;;;;;;;6.07;4.65;;;;;13.60;95007.00;;;;7403186;19;20153;-88
2023/06/24 04:00:25;;;;;;;4.55;4.15;;;;;13.50;95009.00;;;;7401484;19;20193;-88
2023/06/24 04:03:01;;;;;;;4.45;4.05;;;;;13.60;95013.00;;;;7400677;19;20149;-88
2023/06/24 04:05:35;;;;;;;7.68;4.38;;;;;13.70;95007.00;;;;7400309;19;20144;-87
2023/06/24 04:08:05;;;;;;;5.50;4.40;;;;;13.80;95006.00;;;;7402427;19;20251;-87
2023/06/24 04:10:43;;;;;;;4.68;4.25;;;;;13.90;95001.00;;;;7402629;19;20176;-88
2023/06/24 04:13:11;;;;;;;5.57;4.38;;;;;13.90;95012.00;;;;7404013;19;20540;-87
2023/06/24 04:15:45;;;;;;;5.38;4.70;;;;;13.90;95010.00;;;;7403736;19;20145;-87
2023/06/24 04:18:13;;;;;;;4.82;4.38;;;;;14.00;95018.00;;;;7404025;19;20167;-87
2023/06/24 04:20:40;;;;;;;6.13;3.85;;;;;14.00;95015.00;;;;7399554;19;20604;-88
2023/06/24 04:23:15;;;;;;;5.00;4.50;;;;;14.10;95023.00;;;;7402280;19;20592;-87
2023/06/24 04:25:42;;;;;;;6.80;4.53;;;;;14.10;95024.00;;;;7402690;19;20615;-88
2023/06/24 04:28:17;;;;;;;5.32;4.72;;;;;14.10;95021.00;;;;7402935;19;20613;-88
2023/06/24 04:30:57;;;;;;;4.88;4.40;;;;;14.20;95023.00;;;;7402251;19;20236;-87
2023/06/24 04:33:38;;;;;;;5.65;4.57;;;;;14.20;95021.00;;;;7401186;19;20499;-87
2023/06/24 04:36:06;;;;;;;5.15;4.30;;;;;14.40;95029.00;;;;7402808;19;20133;-88
2023/06/24 04:38:40;;;;;;;7.03;4.57;;;;;14.40;95026.00;;;;7397561;19;20148;-87
2023/06/24 04:41:07;;;;;;;6.32;4.50;;;;;14.50;95033.00;;;;7400590;19;20633;-87
2023/06/24 04:43:42;;;;;;;5.47;4.40;;;;;14.70;95038.00;;;;7400660;19;20164;-89
2023/06/24 04:46:10;;;;;;;7.65;4.45;;;;;14.70;95030.00;;;;7399252;19;20615;-86
2023/06/24 04:48:43;;;;;;;5.72;5.15;;;;;14.90;95033.00;;;;7400437;19;20442;-86
2023/06/24 04:51:17;;;;;;;4.95;4.45;;;;;15.00;95037.00;;;;7401416;19;20634;-87
2023/06/24 04:53:52;;;;;;;7.72;4.55;;;;;15.10;95030.00;;;;7401862;19;20169;-87
2023/06/24 04:56:19;;;;;;;5.60;4.10;;;;;15.10;95027.00;;;;7401395;19;20133;-86
2023/06/24 04:58:54;;;;;;;5.07;4.07;;;;;15.30;95033.00;;;;7400523;19;20228;-87
2023/06/24 05:01:34;;;;;;;4.35;3.95;;;;;15.50;95034.00;;;;7398666;19;20660;-87
2023/06/24 05:04:15;;;;;;;5.72;4.28;;;;;15.70;95039.00;;;;7397719;19;20129;-87
2023/06/24 05:06:49;;;;;;;5.72;4.60;;;;;15.70;95037.00;;;;7396712;19;20603;-88
2023/06/24 05:09:18;;;;;;;6.47;4.78;;;;;15.90;95032.00;;;;7400301;19;20157;-86
2023/06/24 05:11:52;;;;;;;8.48;4.93;;;;;16.10;95046.00;;;;7399272;19;20149;-87
2023/06/24 05:14:20;;;;;;;4.28;3.88;;;;;16.20;95037.00;;;;7399049;19;20592;-88
2023/06/24 05:16:55;;;;;;;5.03;4.05;;;;;16.40;95033.00;;;;7399067;19;20177;-88
2023/06/24 05:19:22;;;;;;;10.18;7.03;;;;;16.70;95031.00;;;;7398269;19;20136;-88
2023/06/24 05:21:57;;;;;;;24.67;14.23;;;;;16.90;95042.00;;;;7397424;19;20151;-88
2023/06/24 05:24:25;;;;;;;17.67;11.15;;;;;17.10;95033.00;;;;7384990;19;20435;-88
2023/06/24 05:27:05;;;;;;;7.85;5.50;;;;;17.30;95041.00;;;;7386678;19;20173;-86
2023/06/24 05:29:34;;;;;;;6.97;4.43;;;;;17.40;95047.00;;;;7392932;19;20143;-87
2023/06/24 05:32:08;;;;;;;5.05;4.40;;;;;17.60;95046.00;;;;7389996;19;20499;-87
2023/06/24 05:34:42;;;;;;;4.88;4.38;;;;;17.80;95051.00;;;;7394207;19;20158;-90
2023/06/24 05:37:15;;;;;;;6.90;4.53;;;;;18.00;95045.00;;;;7392914;19;20148;-89
2023/06/24 05:39:43;;;;;;;5.60;4.55;;;;;18.10;95042.00;;;;7392806;19;20260;-90
2023/06/24 05:42:17;;;;;;;8.05;5.22;;;;;18.40;95051.00;;;;7394151;19;20169;-89
2023/06/24 05:44:45;;;;;;;5.47;4.50;;;;;18.50;95047.00;;;;7395267;19;20156;-87
2023/06/24 05:47:13;;;;;;;5.97;4.20;;;;;18.60;95051.00;;;;7393775;19;20144;-87
2023/06/24 05:49:47;;;;;;;7.32;4.45;;;;;18.70;95055.00;;;;7394593;19;20147;-88
2023/06/24 05:52:15;;;;;;;5.47;4.57;;;;;19.10;95050.00;;;;7395851;19;20939;-87
2023/06/24 05:54:50;;;;;;;4.45;4.05;;;;;19.30;95047.00;;;;7393579;19;20154;-88
2023/06/24 05:57:23;;;;;;;5.82;4.07;;;;;19.30;95054.00;;;;7395063;19;20144;-87
2023/06/24 05:59:51;;;;;;;7.60;4.45;;;;;19.50;95057.00;;;;7393556;19;20174;-88
2023/06/24 06:02:39;;;;;;;5.97;4.45;;;;;19.80;95050.00;;;;7394149;19;20194;-88
2023/06/24 06:05:14;;;;;;;5.38;4.80;;;;;19.80;95052.00;;;;7394427;19;20153;-88
2023/06/24 06:07:48;;;;;;;4.68;4.18;;;;;20.20;95051.00;;;;7394075;19;20635;-87
2023/06/24 06:10:17;;;;;;;5.22;4.55;;;;;20.60;95048.00;;;;7393996;19;20646;-88
2023/06/24 06:12:53;;;;;;;5.63;5.07;;;;;21.20;95051.00;;;;7409295;19;20152;-88
2023/06/24 06:15:21;;;;;;;7.82;6.35;;;;;21.50;95055.00;;;;7393347;19;20182;-86
2023/06/24 06:17:55;;;;;;;8.38;6.47;;;;;21.80;95053.00;;;;7395580;19;20302;-88
2023/06/24 06:20:23;;;;;;;5.25;4.75;;;;;22.00;95050.00;;;;7391891;19;20148;-88
2023/06/24 06:22:57;;;;;;;6.35;4.90;;;;;22.20;95053.00;;;;7394344;19;20573;-87
2023/06/24 06:25:35;;;;;;;5.10;4.55;;;;;22.70;95051.00;;;;7389943;19;20177;-86
2023/06/24 06:28:13;;;;;;;4.85;4.35;;;;;22.90;95054.00;;;;7390261;19;20149;-87
2023/06/24 06:30:47;;;;;;;6.55;3.97;;;;;22.60;95055.00;;;;7393204;19;20124;-87
2023/06/24 06:33:21;;;;;;;5.50;4.30;;;;;23.10;95051.00;;;;7391521;19;20133;-87
2023/06/24 06:35:55;;;;;;;4.10;3.70;;;;;23.20;95056.00;;;;7391494;19;20503;-88
2023/06/24 06:38:29;;;;;;;8.93;4.78;;;;;22.90;95051.00;;;;7387587;19;20604;-88
2023/06/24 06:41:03;;;;;;;6.15;4.65;;;;;22.70;95049.00;;;;7391269;19;20161;-88
2023/06/24 06:43:38;;;;;;;6.00;4.20;;;;;22.70;95055.00;;;;7388616;19;20148;-91
2023/06/24 06:46:13;;;;;;;5.45;4.47;;;;;22.70;95060.00;;;;7396575;19;20149;-93
2023/06/24 06:48:41;;;;;;;4.68;4.28;;;;;22.30;95062.00;;;;7394623;19;20159;-94
2023/06/24 06:51:18;;;;;;;4.93;4.43;;;;;22.00;95057.00;;;;7395914;19;20608;-93
2023/06/24 06:53:52;;;;;;;6.55;4.03;;;;;22.10;95059.00;;;;7396525;19;20140;-92
2023/06/24 06:56:27;;;;;;;6.13;4.30;;;;;21.80;95064.00;;;;7397281;19;20162;-93
2023/06/24 06:59:01;;;;;;;4.70;4.20;;;;;21.80;95064.00;;;;7394522;19;20156;-92
2023/06/24 07:01:35;;;;;;;4.65;4.25;;;;;21.90;95065.00;;;;7393653;19;20180;-92
2023/06/24 07:04:17;;;;;;;5.32;4.10;;;;;21.70;95061.00;;;;7393521;19;20580;-91
2023/06/24 07:06:44;;;;;;;5.05;3.80;;;;;21.70;95067.00;;;;7392197;19;20156;-92
2023/06/24 07:09:19;;;;;;;4.28;3.88;;;;;21.60;95052.00;;;;7395645;19;20163;-91
2023/06/24 07:11:47;;;;;;;4.95;3.83;;;;;21.70;95061.00;;;;7394556;19;20129;-90
2023/06/24 07:14:21;;;;;;;5.13;4.35;;;;;21.80;95064.00;;;;7390423;19;20164;-91
2023/06/24 07:16:49;;;;;;;5.82;4.13;;;;;21.70;95058.00;;;;7393405;19;20139;-91
2023/06/24 07:19:23;;;;;;;4.18;3.78;;;;;21.50;95060.00;;;;7392380;19;20174;-90
2023/06/24 07:21:52;;;;;;;6.57;4.00;;;;;21.80;95056.00;;;;7393214;19;20479;-91
2023/06/24 07:24:27;;;;;;;5.40;4.22;;;;;21.90;95062.00;;;;7393511;19;20137;-91
2023/06/24 07:27:01;;;;;;;5.68;4.20;;;;;22.10;95055.00;;;;7391563;19;20514;-91
2023/06/24 07:29:36;;;;;;;4.70;4.30;;;;;22.10;95057.00;;;;7400781;19;20138;-91
2023/06/24 07:32:04;;;;;;;5.95;4.10;;;;;22.00;95061.00;;;;7400488;19;20157;-91
2023/06/24 07:34:38;;;;;;;5.68;4.43;;;;;21.80;95061.00;;;;7400103;19;20706;-91
2023/06/24 07:37:13;;;;;;;9.88;4.53;;;;;21.80;95058.00;;;;7399397;19;20612;-91
2023/06/24 07:39:51;;;;;;;6.18;4.47;;;;;22.10;95057.00;;;;7397011;19;20160;-91
2023/06/24 07:42:25;;;;;;;6.82;4.47;;;;;22.70;95058.00;;;;7400096;19;20144;-89
2023/06/24 07:45:00;;;;;;;4.20;3.80;;;;;22.80;95058.00;;;;7398561;19;20609;-91
2023/06/24 07:47:28;;;;;;;4.10;3.75;;;;;22.90;95058.00;;;;7398641;19;20156;-92
2023/06/24 07:50:03;;;;;;;5.70;3.83;;;;;23.10;95060.00;;;;7399335;19;20159;-90
2023/06/24 07:52:30;;;;;;;3.78;3.33;;;;;22.90;95053.00;;;;7398475;19;20133;-91
2023/06/24 07:55:05;;;;;;;4.10;3.53;;;;;23.10;95066.00;;;;7399269;19;20145;-87
2023/06/24 07:57:39;;;;;;;5.68;4.15;;;;;22.90;95065.00;;;;7396785;19;20588;-88
2023/06/24 08:00:15;;;;;;;6.60;4.43;;;;;23.10;95060.00;;;;7399087;19;20125;-88
2023/06/24 08:02:49;;;;;;;4.80;3.97;;;;;22.90;95062.00;;;;7399347;19;20267;-88
2023/06/24 08:05:24;;;;;;;4.47;3.83;;;;;23.10;95063.00;;;;7398010;19;20248;-89
2023/06/24 08:07:59;;;;;;;4.60;3.90;;;;;23.30;95051.00;;;;7394583;19;20156;-87
2023/06/24 08:10:33;;;;;;;3.92;3.53;;;;;23.10;95048.00;;;;7395524;19;20144;-90
2023/06/24 08:13:01;;;;;;;7.20;3.33;;;;;23.00;95055.00;;;;7396402;19;20190;-90
2023/06/24 08:15:35;;;;;;;4.47;3.67;;;;;22.70;95047.00;;;;7395559;19;20129;-88
2023/06/24 08:18:10;;;;;;;5.00;3.90;;;;;23.10;95056.00;;;;7397006;19;20140;-87
2023/06/24 08:20:44;;;;;;;3.80;3.40;;;;;23.20;95060.00;;;;7394752;19;20147;-88
2023/06/24 08:23:18;;;;;;;4.45;3.60;;;;;23.40;95054.00;;;;7390343;19;20132;-89
2023/06/24 08:25:52;;;;;;;6.45;3.33;;;;;23.20;95052.00;;;;7390707;19;20148;-87
2023/06/24 08:28:35;;;;;;;6.97;3.47;;;;;23.50;95057.00;;;;7398018;19;20133;-88
2023/06/24 08:31:09;;;;;;;5.53;3.35;;;;;23.70;95047.00;;;;7398548;19;20152;-90
2023/06/24 08:33:43;;;;;;;3.70;3.30;;;;;24.30;95043.00;;;;7396428;19;20141;-87
2023/06/24 08:36:17;;;;;;;11.23;3.40;;;;;24.80;95040.00;;;;7393855;19;20148;-89
2023/06/24 08:38:46;;;;;;;3.50;3.13;;;;;24.00;95042.00;;;;7392804;19;20136;-86
2023/06/24 08:41:19;;;;;;;4.30;3.20;;;;;24.10;95038.00;;;;7395919;19;20460;-90
2023/06/24 08:43:47;;;;;;;7.35;3.30;;;;;24.50;95042.00;;;;7393125;19;20178;-85
2023/06/24 08:46:23;;;;;;;4.25;3.17;;;;;24.50;95039.00;;;;7393454;19;20152;-86
2023/06/24 08:49:04;;;;;;;3.90;3.22;;;;;24.50;95032.00;;;;7396192;19;20128;-87
2023/06/24 08:51:43;;;;;;;3.08;2.78;;;;;24.50;95042.00;;;;7395320;19;21481;-89
2023/06/24 08:54:21;;;;;;;3.55;2.83;;;;;24.70;95042.00;;;;7395015;19;20207;-88
2023/06/24 08:56:50;;;;;;;8.30;4.72;;;;;24.80;95043.00;;;;7393062;19;20220;-90
2023/06/24 08:59:23;;;;;;;5.38;3.25;;;;;24.90;95037.00;;;;7394824;19;20204;-88
2023/06/24 09:02:13;;;;;;;6.63;3.42;;;;;24.50;95037.00;;;;7396255;19;20186;-89
2023/06/24 09:04:50;;;;;;;4.68;3.35;;;;;24.80;95031.00;;;;7399587;19;20241;-88
2023/06/24 09:07:28;;;;;;;3.42;3.13;;;;;24.80;95039.00;;;;7394834;19;20173;-92
2023/06/24 09:09:56;;;;;;;3.42;3.00;;;;;24.90;95033.00;;;;7397356;19;20148;-90
2023/06/24 09:12:34;;;;;;;5.60;3.25;;;;;24.30;95031.00;;;;7394565;19;20554;-87
2023/06/24 09:15:15;;;;;;;4.15;3.47;;;;;24.60;95025.00;;;;7390320;19;20148;-88
2023/06/24 09:17:50;;;;;;;3.25;2.95;;;;;24.70;95034.00;;;;7393496;19;20145;-88
2023/06/24 09:20:24;;;;;;;5.15;3.60;;;;;25.20;95018.00;;;;7390819;19;20260;-86
2023/06/24 09:23:01;;;;;;;5.25;3.47;;;;;25.40;95028.00;;;;7391476;19;20155;-87
2023/06/24 09:25:29;;;;;;;3.95;3.55;;;;;25.10;95024.00;;;;7393288;19;20129;-87
2023/06/24 09:28:04;;;;;;;8.25;4.15;;;;;25.60;95012.00;;;;7392442;19;20469;-86
2023/06/24 09:30:32;;;;;;;5.75;3.78;;;;;24.70;95039.00;;;;7390364;19;20202;-87
2023/06/24 09:33:10;;;;;;;11.50;5.47;;;;;25.10;95004.00;;;;7392546;19;20128;-86
2023/06/24 09:35:38;;;;;;;7.40;3.83;;;;;25.90;95004.00;;;;7391955;19;20162;-86
2023/06/24 09:38:13;;;;;;;4.03;3.72;;;;;27.20;95012.00;;;;7393353;19;20135;-87
2023/06/24 09:40:47;;;;;;;4.10;3.70;;;;;27.20;95007.00;;;;7393569;19;20265;-87
2023/06/24 09:43:20;;;;;;;6.05;3.65;;;;;27.50;95006.00;;;;7393092;19;20137;-89
2023/06/24 09:45:55;;;;;;;5.13;3.85;;;;;27.60;95011.00;;;;7394453;19;20160;-88
2023/06/24 09:48:23;;;;;;;3.90;3.50;;;;;26.80;95031.00;;;;7389654;19;20141;-87
2023/06/24 09:50:51;;;;;;;4.20;3.80;;;;;26.90;95000.00;;;;7389326;19;20148;-86
2023/06/24 09:53:25;;;;;;;3.85;3.40;;;;;26.40;94992.00;;;;7392722;19;20612;-88
2023/06/24 09:55:54;;;;;;;4.30;3.55;;;;;27.40;94988.00;;;;7390887;19;20138;-85
2023/06/24 09:58:40;;;;;;;3.72;3.15;;;;;28.10;94986.00;;;;7391189;19;20142;-88
2023/06/24 10:01:08;;;;;;;3.10;2.80;;;;;29.00;94990.00;;;;7389079;19;20175;-87
2023/06/24 10:03:53;;;;;;;3.13;2.83;;;;;28.90;94983.00;;;;7390794;19;20177;-88
2023/06/24 10:06:29;;;;;;;2.80;2.58;;;;;28.40;94984.00;;;;7391011;19;20132;-90
2023/06/24 10:09:04;;;;;;;3.75;2.80;;;;;28.30;94987.00;;;;7390953;19;20124;-88
2023/06/24 10:11:39;;;;;;;3.78;3.22;;;;;29.00;94988.00;;;;7392454;19;20730;-87
2023/06/24 10:14:15;;;;;;;3.35;3.05;;;;;29.20;94988.00;;;;7388517;19;20152;-89
2023/06/24 10:16:44;;;;;;;3.97;2.83;;;;;28.20;94979.00;;;;7395029;19;20165;-93
2023/06/24 10:19:21;;;;;;;3.50;3.20;;;;;29.00;94989.00;;;;7395082;19;20161;-93
2023/06/24 10:22:01;;;;;;;3.42;3.13;;;;;28.20;94980.00;;;;7392896;19;20139;-93
2023/06/24 10:24:41;;;;;;;3.10;2.85;;;;;28.70;94975.00;;;;7392303;19;20148;-92
2023/06/24 10:27:23;;;;;;;4.82;3.08;;;;;29.20;94981.00;;;;7394093;19;20116;-89
2023/06/24 10:30:01;;;;;;;3.50;3.20;;;;;29.00;94975.00;;;;7392110;19;20173;-92
2023/06/24 10:32:42;;;;;;;9.70;3.63;;;;;29.10;94972.00;;;;7389520;19;20144;-92
2023/06/24 10:35:31;;;;;;;3.53;2.90;;;;;29.20;94972.00;;;;7394269;19;20592;-94
2023/06/24 10:38:00;;;;;;;11.05;3.10;;;;;29.00;94976.00;;;;7390372;19;20496;-89
2023/06/24 10:40:43;;;;;;;4.35;2.95;;;;;28.70;94969.00;;;;7387416;19;20786;-89
2023/06/24 10:43:25;;;;;;;3.00;2.80;;;;;29.40;94960.00;;;;7392013;19;20147;-90
2023/06/24 10:46:14;;;;;;;3.53;3.00;;;;;29.00;94966.00;;;;7391946;19;20600;-90
2023/06/24 10:48:48;;;;;;;3.20;2.88;;;;;28.60;94956.00;;;;7394803;19;20140;-89
2023/06/24 10:51:16;;;;;;;4.10;3.40;;;;;27.70;94952.00;;;;7394522;19;20132;-96
2023/06/24 10:53:51;;;;;;;4.43;2.72;;;;;28.80;94950.00;;;;7393415;19;20154;-89
2023/06/24 10:56:30;;;;;;;3.55;3.03;;;;;29.00;94955.00;;;;7391421;19;20187;-91
2023/06/24 10:58:59;;;;;;;4.07;2.97;;;;;28.90;94952.00;;;;7391007;19;20139;-93
2023/06/24 11:01:32;;;;;;;3.70;3.10;;;;;28.60;94946.00;;;;7389262;19;20587;-92
2023/06/24 11:04:13;;;;;;;3.20;3.00;;;;;28.70;94947.00;;;;7398418;19;20172;-91
2023/06/24 11:07:01;;;;;;;3.08;2.78;;;;;29.00;94941.00;;;;7402536;19;20162;-93
2023/06/24 11:09:31;;;;;;;3.47;3.00;;;;;29.60;94946.00;;;;7398832;19;20143;-89
2023/06/24 11:12:10;;;;;;;3.13;2.83;;;;;29.30;94934.00;;;;7398679;19;20169;-86
2023/06/24 11:14:41;;;;;;;5.80;3.20;;;;;29.70;94945.00;;;;7398613;19;20524;-87
2023/06/24 11:17:14;;;;;;;3.65;3.33;;;;;29.80;94936.00;;;;7395794;19;20152;-90
2023/06/24 11:19:49;;;;;;;3.25;2.95;;;;;29.60;94929.00;;;;7395253;19;20164;-87
2023/06/24 11:22:24;;;;;;;6.72;3.45;;;;;30.50;94934.00;;;;7394895;19;20128;-88
2023/06/24 11:24:53;;;;;;;3.45;3.15;;;;;30.80;94928.00;;;;7392363;19;20151;-86
2023/06/24 11:27:30;;;;;;;3.50;3.20;;;;;30.30;94932.00;;;;7392870;19;20619;-88
2023/06/24 11:30:05;;;;;;;3.70;3.30;;;;;31.00;94927.00;;;;7391976;19;20128;-85
2023/06/24 11:32:41;;;;;;;3.35;3.05;;;;;30.90;94924.00;;;;7393459;19;20172;-85
2023/06/24 11:35:11;;;;;;;3.67;3.38;;;;;30.40;94927.00;;;;7393394;19;20600;-86
2023/06/24 11:37:47;;;;;;;4.13;3.65;;;;;31.00;94917.00;;;;7394828;19;20158;-87
2023/06/24 11:40:22;;;;;;;3.67;3.30;;;;;31.00;94946.00;;;;7394541;19;20453;-87
2023/06/24 11:42:56;;;;;;;3.60;3.17;;;;;30.30;94914.00;;;;7393340;19;20143;-86
2023/06/24 11:45:25;;;;;;;3.33;3.03;;;;;30.80;94911.00;;;;7392879;19;20148;-85
2023/06/24 11:48:07;;;;;;;3.88;3.10;;;;;30.60;94909.00;;;;7392870;19;20148;-85
2023/06/24 11:50:41;;;;;;;4.18;3.50;;;;;30.10;94905.00;;;;7397175;19;20176;-85
2023/06/24 11:53:15;;;;;;;3.38;3.08;;;;;30.60;94900.00;;;;7392918;19;20612;-87
2023/06/24 11:55:43;;;;;;;3.28;2.97;;;;;31.50;94900.00;;;;7388910;19;20154;-86
2023/06/24 11:58:20;;;;;;;3.92;2.70;;;;;32.00;94895.00;;;;7389527;19;20124;-86
2023/06/24 12:01:01;;;;;;;4.35;3.28;;;;;32.10;94894.00;;;;7392717;19;20163;-86
2023/06/24 12:03:42;;;;;;;3.65;3.30;;;;;31.70;94891.00;;;;7392276;19;20238;-88
2023/06/24 12:06:17;;;;;;;4.40;3.30;;;;;32.40;94885.00;;;;7390129;19;20161;-86
2023/06/24 12:08:52;;;;;;;3.53;2.92;;;;;32.80;94882.00;;;;7388697;19;20203;-85
2023/06/24 12:11:19;;;;;;;4.10;3.28;;;;;33.30;94893.00;;;;7389138;19;20148;-87
2023/06/24 12:13:54;;;;;;;3.20;2.90;;;;;32.10;94895.00;;;;7383704;19;20146;-86
2023/06/24 12:16:24;;;;;;;3.25;2.95;;;;;33.50;94883.00;;;;7388731;19;20169;-86
2023/06/24 12:18:53;;;;;;;3.50;3.10;;;;;32.60;94877.00;;;;7392098;19;20171;-88
2023/06/24 12:21:27;;;;;;;3.58;3.25;;;;;33.00;94875.00;;;;7389880;19;20154;-84
2023/06/24 12:23:55;;;;;;;3.97;3.30;;;;;32.10;94869.00;;;;7387263;19;20274;-84
2023/06/24 12:26:23;;;;;;;4.88;3.45;;;;;31.70;94869.00;;;;7392279;19;20156;-84
2023/06/24 12:28:57;;;;;;;3.38;2.90;;;;;32.00;94875.00;;;;7392758;19;20190;-84
2023/06/24 12:31:31;;;;;;;4.45;2.90;;;;;31.60;94867.00;;;;7392992;19;20140;-84
2023/06/24 12:34:08;;;;;;;3.42;3.13;;;;;31.50;94860.00;;;;7394314;19;20152;-84
2023/06/24 12:36:42;;;;;;;3.35;2.90;;;;;31.10;94864.00;;;;7394080;19;20591;-83
2023/06/24 12:39:10;;;;;;;3.45;3.15;;;;;31.60;94866.00;;;;7388457;19;20205;-85
2023/06/24 12:41:47;;;;;;;4.47;3.50;;;;;31.80;94865.00;;;;7388364;19;20136;-88
2023/06/24 12:44:25;;;;;;;3.55;3.25;;;;;31.00;94854.00;;;;7393591;19;20176;-91
2023/06/24 12:46:59;;;;;;;5.60;3.63;;;;;31.40;94859.00;;;;7392909;19;20144;-89
2023/06/24 12:49:27;;;;;;;4.97;3.35;;;;;32.00;94861.00;;;;7393018;19;20474;-87
2023/06/24 12:51:55;;;;;;;3.45;3.17;;;;;31.30;94856.00;;;;7392097;19;20177;-86
2023/06/24 12:54:29;;;;;;;4.40;3.50;;;;;31.80;94845.00;;;;7391041;19;20139;-87